sensor_id;sensor_type;location;lat;lon;timestamp;temperature;humidity
5429;DHT22;2737;52.386;9.980;2023-03-21T00:01:49;7.20;99.90
5429;DHT22;2737;52.386;9.980;2023-03-21T00:04:16;7.20;99.90
5429;DHT22;2737;52.386;9.980;2023-03-21T00:06:43;7.20;99.90
5429;DHT22;2737;52.386;9.980;2023-03-21T00:09:11;7.20;99.90
5429;DHT22;2737;52.386;9.980;2023-03-21T00:11:38;7.30;99.90
5429;DHT22;2737;52.386;9.980;2023-03-21T00:14:06;7.30;99.90
5429;DHT22;2737;52.386;9.980;2023-03-21T00:16:39;7.20;99.90
5429;DHT22;2737;52.386;9.980;2023-03-21T00:19:06;7.30;99.90
5429;DHT22;2737;52.386;9.980;2023-03-21T00:21:34;7.30;99.90
5429;DHT22;2737;52.386;9.980;2023-03-21T00:24:03;7.30;99.90
5429;DHT22;2737;52.386;9.980;2023-03-21T00:26:31;7.30;99.90
5429;DHT22;2737;52.386;9.980;2023-03-21T00:28:58;7.30;99.90
5429;DHT22;2737;52.386;9.980;2023-03-21T00:31:26;7.30;99.90
5429;DHT22;2737;52.386;9.980;2023-03-21T00:33:53;7.30;99.90
5429;DHT22;2737;52.386;9.980;2023-03-21T00:36:20;7.30;99.90
5429;DHT22;2737;52.386;9.980;2023-03-21T00:38:50;7.30;99.90
5429;DHT22;2737;52.386;9.980;2023-03-21T00:41:17;7.40;99.90
5429;DHT22;2737;52.386;9.980;2023-03-21T00:43:44;7.40;99.90
5429;DHT22;2737;52.386;9.980;2023-03-21T00:46:11;7.40;99.90
5429;DHT22;2737;52.386;9.980;2023-03-21T00:48:40;7.40;99.90
5429;DHT22;2737;52.386;9.980;2023-03-21T00:51:11;7.40;99.90
5429;DHT22;2737;52.386;9.980;2023-03-21T00:53:40;7.30;99.90
5429;DHT22;2737;52.386;9.980;2023-03-21T00:56:08;7.40;99.90
5429;DHT22;2737;52.386;9.980;2023-03-21T00:58:35;7.40;99.90
5429;DHT22;2737;52.386;9.980;2023-03-21T01:01:03;7.50;99.90
5429;DHT22;2737;52.386;9.980;2023-03-21T01:03:32;7.50;99.90
5429;DHT22;2737;52.386;9.980;2023-03-21T01:06:09;7.50;99.90
5429;DHT22;2737;52.386;9.980;2023-03-21T01:08:39;7.50;99.90
5429;DHT22;2737;52.386;9.980;2023-03-21T01:11:09;7.50;99.90
5429;DHT22;2737;52.386;9.980;2023-03-21T01:13:37;7.50;99.90
5429;DHT22;2737;52.386;9.980;2023-03-21T01:16:06;7.60;99.90
5429;DHT22;2737;52.386;9.980;2023-03-21T01:18:35;7.50;99.90
5429;DHT22;2737;52.386;9.980;2023-03-21T01:21:05;7.50;99.90
5429;DHT22;2737;52.386;9.980;2023-03-21T01:23:34;7.50;99.90
5429;DHT22;2737;52.386;9.980;2023-03-21T01:26:01;7.50;99.90
5429;DHT22;2737;52.386;9.980;2023-03-21T01:28:29;7.50;99.90
5429;DHT22;2737;52.386;9.980;2023-03-21T01:30:56;7.50;99.90
5429;DHT22;2737;52.386;9.980;2023-03-21T01:33:23;7.50;99.90
5429;DHT22;2737;52.386;9.980;2023-03-21T01:35:50;7.50;99.90
5429;DHT22;2737;52.386;9.980;2023-03-21T01:38:17;7.50;99.90
5429;DHT22;2737;52.386;9.980;2023-03-21T01:40:47;7.50;99.90
5429;DHT22;2737;52.386;9.980;2023-03-21T01:43:22;7.40;99.90
5429;DHT22;2737;52.386;9.980;2023-03-21T01:46:19;7.50;99.90
5429;DHT22;2737;52.386;9.980;2023-03-21T01:48:50;7.50;99.90
5429;DHT22;2737;52.386;9.980;2023-03-21T01:51:20;7.50;99.90
5429;DHT22;2737;52.386;9.980;2023-03-21T01:53:47;7.50;99.90
5429;DHT22;2737;52.386;9.980;2023-03-21T01:56:21;7.40;99.90
5429;DHT22;2737;52.386;9.980;2023-03-21T01:58:52;7.50;99.90
5429;DHT22;2737;52.386;9.980;2023-03-21T02:01:21;7.40;99.90
5429;DHT22;2737;52.386;9.980;2023-03-21T02:03:49;7.40;99.90
5429;DHT22;2737;52.386;9.980;2023-03-21T02:06:22;7.40;99.90
5429;DHT22;2737;52.386;9.980;2023-03-21T02:08:51;7.40;99.90
5429;DHT22;2737;52.386;9.980;2023-03-21T02:11:20;7.40;99.90
5429;DHT22;2737;52.386;9.980;2023-03-21T02:13:48;7.40;99.90
5429;DHT22;2737;52.386;9.980;2023-03-21T02:16:20;7.40;99.90
5429;DHT22;2737;52.386;9.980;2023-03-21T02:18:55;7.40;99.90
5429;DHT22;2737;52.386;9.980;2023-03-21T02:21:51;7.40;99.90
5429;DHT22;2737;52.386;9.980;2023-03-21T02:27:34;7.40;99.90
5429;DHT22;2737;52.386;9.980;2023-03-21T02:30:34;7.50;99.90
5429;DHT22;2737;52.386;9.980;2023-03-21T02:33:21;7.40;99.90
5429;DHT22;2737;52.386;9.980;2023-03-21T02:38:48;7.50;99.90
5429;DHT22;2737;52.386;9.980;2023-03-21T02:41:20;7.40;99.90
5429;DHT22;2737;52.386;9.980;2023-03-21T02:43:54;7.50;99.90
5429;DHT22;2737;52.386;9.980;2023-03-21T02:46:27;7.40;99.90
5429;DHT22;2737;52.386;9.980;2023-03-21T02:49:04;7.50;99.90
5429;DHT22;2737;52.386;9.980;2023-03-21T02:51:34;7.50;99.90
5429;DHT22;2737;52.386;9.980;2023-03-21T02:54:08;7.50;99.90
5429;DHT22;2737;52.386;9.980;2023-03-21T02:56:36;7.50;99.90
5429;DHT22;2737;52.386;9.980;2023-03-21T02:59:05;7.50;99.90
5429;DHT22;2737;52.386;9.980;2023-03-21T03:01:33;7.50;99.90
5429;DHT22;2737;52.386;9.980;2023-03-21T03:04:01;7.50;99.90
5429;DHT22;2737;52.386;9.980;2023-03-21T03:06:30;7.50;99.90
5429;DHT22;2737;52.386;9.980;2023-03-21T03:09:23;7.50;99.90
5429;DHT22;2737;52.386;9.980;2023-03-21T03:12:01;7.50;99.90
5429;DHT22;2737;52.386;9.980;2023-03-21T03:14:44;7.50;99.90
5429;DHT22;2737;52.386;9.980;2023-03-21T03:17:19;7.60;99.90
5429;DHT22;2737;52.386;9.980;2023-03-21T03:19:59;7.50;99.90
5429;DHT22;2737;52.386;9.980;2023-03-21T03:22:38;7.60;99.90
5429;DHT22;2737;52.386;9.980;2023-03-21T03:25:11;7.60;99.90
5429;DHT22;2737;52.386;9.980;2023-03-21T03:27:41;7.60;99.90
5429;DHT22;2737;52.386;9.980;2023-03-21T03:30:10;7.60;99.90
5429;DHT22;2737;52.386;9.980;2023-03-21T03:32:40;7.60;99.90
5429;DHT22;2737;52.386;9.980;2023-03-21T03:35:10;7.60;99.90
5429;DHT22;2737;52.386;9.980;2023-03-21T03:37:40;7.60;99.90
5429;DHT22;2737;52.386;9.980;2023-03-21T03:40:12;7.60;99.90
5429;DHT22;2737;52.386;9.980;2023-03-21T03:42:45;7.60;99.90
5429;DHT22;2737;52.386;9.980;2023-03-21T03:45:13;7.70;99.90
5429;DHT22;2737;52.386;9.980;2023-03-21T03:47:45;7.70;99.90
5429;DHT22;2737;52.386;9.980;2023-03-21T03:50:18;7.70;99.90
5429;DHT22;2737;52.386;9.980;2023-03-21T03:52:49;7.70;99.90
5429;DHT22;2737;52.386;9.980;2023-03-21T03:55:20;7.70;99.90
5429;DHT22;2737;52.386;9.980;2023-03-21T03:57:48;7.70;99.90
5429;DHT22;2737;52.386;9.980;2023-03-21T04:00:16;7.70;99.90
5429;DHT22;2737;52.386;9.980;2023-03-21T04:02:43;7.80;99.90
5429;DHT22;2737;52.386;9.980;2023-03-21T04:05:11;7.80;99.90
5429;DHT22;2737;52.386;9.980;2023-03-21T04:07:38;7.70;99.90
5429;DHT22;2737;52.386;9.980;2023-03-21T04:10:06;7.80;99.90
5429;DHT22;2737;52.386;9.980;2023-03-21T04:12:35;7.80;99.90
5429;DHT22;2737;52.386;9.980;2023-03-21T04:15:02;7.80;99.90
5429;DHT22;2737;52.386;9.980;2023-03-21T04:17:29;7.80;99.90
5429;DHT22;2737;52.386;9.980;2023-03-21T04:19:57;7.80;99.90
5429;DHT22;2737;52.386;9.980;2023-03-21T04:22:24;7.80;99.90
5429;DHT22;2737;52.386;9.980;2023-03-21T04:24:52;7.80;99.90
5429;DHT22;2737;52.386;9.980;2023-03-21T04:27:19;7.80;99.90
5429;DHT22;2737;52.386;9.980;2023-03-21T04:29:48;7.80;99.90
5429;DHT22;2737;52.386;9.980;2023-03-21T04:32:15;7.80;99.90
5429;DHT22;2737;52.386;9.980;2023-03-21T04:34:42;7.80;99.90
5429;DHT22;2737;52.386;9.980;2023-03-21T04:37:15;7.80;99.90
5429;DHT22;2737;52.386;9.980;2023-03-21T04:39:42;7.90;99.90
5429;DHT22;2737;52.386;9.980;2023-03-21T04:42:11;7.80;99.90
5429;DHT22;2737;52.386;9.980;2023-03-21T04:44:39;7.80;99.90
5429;DHT22;2737;52.386;9.980;2023-03-21T04:47:07;7.80;99.90
5429;DHT22;2737;52.386;9.980;2023-03-21T04:49:34;7.80;99.90
5429;DHT22;2737;52.386;9.980;2023-03-21T04:52:01;7.80;99.90
5429;DHT22;2737;52.386;9.980;2023-03-21T04:54:28;7.80;99.90
5429;DHT22;2737;52.386;9.980;2023-03-21T04:56:57;7.80;99.90
5429;DHT22;2737;52.386;9.980;2023-03-21T04:59:24;7.80;99.90
5429;DHT22;2737;52.386;9.980;2023-03-21T05:01:51;7.80;99.90
5429;DHT22;2737;52.386;9.980;2023-03-21T05:04:19;7.80;99.90
5429;DHT22;2737;52.386;9.980;2023-03-21T05:06:46;7.80;99.90
5429;DHT22;2737;52.386;9.980;2023-03-21T05:09:13;7.80;99.90
5429;DHT22;2737;52.386;9.980;2023-03-21T05:11:41;7.80;99.90
5429;DHT22;2737;52.386;9.980;2023-03-21T05:14:10;7.80;99.90
5429;DHT22;2737;52.386;9.980;2023-03-21T05:16:38;7.80;99.90
5429;DHT22;2737;52.386;9.980;2023-03-21T05:19:13;7.80;99.90
5429;DHT22;2737;52.386;9.980;2023-03-21T05:21:41;7.80;99.90
5429;DHT22;2737;52.386;9.980;2023-03-21T05:24:12;7.80;99.90
5429;DHT22;2737;52.386;9.980;2023-03-21T05:26:41;7.90;99.90
5429;DHT22;2737;52.386;9.980;2023-03-21T05:29:09;7.90;99.90
5429;DHT22;2737;52.386;9.980;2023-03-21T05:31:36;7.90;99.90
5429;DHT22;2737;52.386;9.980;2023-03-21T05:34:03;7.90;99.90
5429;DHT22;2737;52.386;9.980;2023-03-21T05:36:30;7.90;99.90
5429;DHT22;2737;52.386;9.980;2023-03-21T05:39:00;7.90;99.90
5429;DHT22;2737;52.386;9.980;2023-03-21T05:41:28;7.90;99.90
5429;DHT22;2737;52.386;9.980;2023-03-21T05:43:55;7.90;99.90
5429;DHT22;2737;52.386;9.980;2023-03-21T05:46:22;7.90;99.90
5429;DHT22;2737;52.386;9.980;2023-03-21T05:48:49;8.00;99.90
5429;DHT22;2737;52.386;9.980;2023-03-21T05:51:17;8.00;99.90
5429;DHT22;2737;52.386;9.980;2023-03-21T05:53:44;8.00;99.90
5429;DHT22;2737;52.386;9.980;2023-03-21T05:56:13;8.00;99.90
5429;DHT22;2737;52.386;9.980;2023-03-21T05:58:40;8.00;99.90
5429;DHT22;2737;52.386;9.980;2023-03-21T06:01:07;8.00;99.90
5429;DHT22;2737;52.386;9.980;2023-03-21T06:03:34;8.00;99.90
5429;DHT22;2737;52.386;9.980;2023-03-21T06:06:01;8.00;99.90
5429;DHT22;2737;52.386;9.980;2023-03-21T06:08:29;8.00;99.90
5429;DHT22;2737;52.386;9.980;2023-03-21T06:10:56;8.10;99.90
5429;DHT22;2737;52.386;9.980;2023-03-21T06:13:25;8.10;99.90
5429;DHT22;2737;52.386;9.980;2023-03-21T06:15:52;8.10;99.90
5429;DHT22;2737;52.386;9.980;2023-03-21T06:18:19;8.10;99.90
5429;DHT22;2737;52.386;9.980;2023-03-21T06:20:46;8.20;99.90
5429;DHT22;2737;52.386;9.980;2023-03-21T06:23:13;8.20;99.90
5429;DHT22;2737;52.386;9.980;2023-03-21T06:25:41;8.20;99.90
5429;DHT22;2737;52.386;9.980;2023-03-21T06:28:08;8.20;99.90
5429;DHT22;2737;52.386;9.980;2023-03-21T06:30:37;8.20;99.90
5429;DHT22;2737;52.386;9.980;2023-03-21T06:33:04;8.20;99.90
5429;DHT22;2737;52.386;9.980;2023-03-21T06:35:31;8.30;99.90
5429;DHT22;2737;52.386;9.980;2023-03-21T06:37:58;8.30;99.90
5429;DHT22;2737;52.386;9.980;2023-03-21T06:40:25;8.30;99.90
5429;DHT22;2737;52.386;9.980;2023-03-21T06:42:52;8.30;99.90
5429;DHT22;2737;52.386;9.980;2023-03-21T06:45:19;8.30;99.90
5429;DHT22;2737;52.386;9.980;2023-03-21T06:47:47;8.40;99.90
5429;DHT22;2737;52.386;9.980;2023-03-21T06:50:14;8.40;99.90
5429;DHT22;2737;52.386;9.980;2023-03-21T06:52:42;8.40;99.90
5429;DHT22;2737;52.386;9.980;2023-03-21T06:55:09;8.40;99.90
5429;DHT22;2737;52.386;9.980;2023-03-21T06:57:36;8.40;99.90
5429;DHT22;2737;52.386;9.980;2023-03-21T07:00:04;8.40;99.90
5429;DHT22;2737;52.386;9.980;2023-03-21T07:02:33;8.50;99.90
5429;DHT22;2737;52.386;9.980;2023-03-21T07:05:01;8.50;99.90
5429;DHT22;2737;52.386;9.980;2023-03-21T07:07:28;8.50;99.90
5429;DHT22;2737;52.386;9.980;2023-03-21T07:09:55;8.50;99.90
5429;DHT22;2737;52.386;9.980;2023-03-21T07:12:23;8.50;99.90
5429;DHT22;2737;52.386;9.980;2023-03-21T07:14:50;8.50;99.90
5429;DHT22;2737;52.386;9.980;2023-03-21T07:17:17;8.60;99.90
5429;DHT22;2737;52.386;9.980;2023-03-21T07:19:44;8.60;99.90
5429;DHT22;2737;52.386;9.980;2023-03-21T07:22:12;8.60;99.90
5429;DHT22;2737;52.386;9.980;2023-03-21T07:24:39;8.60;99.90
5429;DHT22;2737;52.386;9.980;2023-03-21T07:27:06;8.60;99.90
5429;DHT22;2737;52.386;9.980;2023-03-21T07:29:33;8.60;99.90
5429;DHT22;2737;52.386;9.980;2023-03-21T07:32:00;8.60;99.90
5429;DHT22;2737;52.386;9.980;2023-03-21T07:34:27;8.70;99.90
5429;DHT22;2737;52.386;9.980;2023-03-21T07:36:58;8.70;99.90
5429;DHT22;2737;52.386;9.980;2023-03-21T07:39:27;8.70;99.90
5429;DHT22;2737;52.386;9.980;2023-03-21T07:41:54;8.70;99.90
5429;DHT22;2737;52.386;9.980;2023-03-21T07:44:22;8.70;99.90
5429;DHT22;2737;52.386;9.980;2023-03-21T07:46:50;8.70;99.90
5429;DHT22;2737;52.386;9.980;2023-03-21T07:49:17;8.80;99.90
5429;DHT22;2737;52.386;9.980;2023-03-21T07:51:44;8.80;99.90
5429;DHT22;2737;52.386;9.980;2023-03-21T07:54:11;8.80;99.90
5429;DHT22;2737;52.386;9.980;2023-03-21T07:56:39;8.90;99.90
5429;DHT22;2737;52.386;9.980;2023-03-21T07:59:06;8.90;99.90
5429;DHT22;2737;52.386;9.980;2023-03-21T08:01:34;9.00;99.90
5429;DHT22;2737;52.386;9.980;2023-03-21T08:04:01;9.10;99.90
5429;DHT22;2737;52.386;9.980;2023-03-21T08:06:28;9.20;99.90
5429;DHT22;2737;52.386;9.980;2023-03-21T08:08:57;9.30;99.90
5429;DHT22;2737;52.386;9.980;2023-03-21T08:11:24;9.40;99.90
5429;DHT22;2737;52.386;9.980;2023-03-21T08:13:53;9.50;99.90
5429;DHT22;2737;52.386;9.980;2023-03-21T08:16:20;9.50;99.90
5429;DHT22;2737;52.386;9.980;2023-03-21T08:18:47;9.60;99.90
5429;DHT22;2737;52.386;9.980;2023-03-21T08:21:15;9.60;99.90
5429;DHT22;2737;52.386;9.980;2023-03-21T08:23:42;9.70;99.90
5429;DHT22;2737;52.386;9.980;2023-03-21T08:26:09;9.80;99.90
5429;DHT22;2737;52.386;9.980;2023-03-21T08:28:36;9.90;99.90
5429;DHT22;2737;52.386;9.980;2023-03-21T08:31:08;9.90;99.90
5429;DHT22;2737;52.386;9.980;2023-03-21T08:33:36;9.90;99.90
5429;DHT22;2737;52.386;9.980;2023-03-21T08:36:04;10.00;99.90
5429;DHT22;2737;52.386;9.980;2023-03-21T08:38:31;10.00;99.90
5429;DHT22;2737;52.386;9.980;2023-03-21T08:40:59;10.00;99.90
5429;DHT22;2737;52.386;9.980;2023-03-21T08:43:26;10.10;99.90
5429;DHT22;2737;52.386;9.980;2023-03-21T08:45:54;10.10;99.90
5429;DHT22;2737;52.386;9.980;2023-03-21T08:48:22;10.10;99.90
5429;DHT22;2737;52.386;9.980;2023-03-21T08:50:49;10.10;99.90
5429;DHT22;2737;52.386;9.980;2023-03-21T08:53:17;10.10;99.90
5429;DHT22;2737;52.386;9.980;2023-03-21T08:55:44;10.10;99.90
5429;DHT22;2737;52.386;9.980;2023-03-21T08:58:11;10.20;99.90
5429;DHT22;2737;52.386;9.980;2023-03-21T09:00:38;10.20;99.90
5429;DHT22;2737;52.386;9.980;2023-03-21T09:03:05;10.20;99.90
5429;DHT22;2737;52.386;9.980;2023-03-21T09:05:33;10.20;99.90
5429;DHT22;2737;52.386;9.980;2023-03-21T09:08:01;10.20;99.90
5429;DHT22;2737;52.386;9.980;2023-03-21T09:10:28;10.10;99.90
5429;DHT22;2737;52.386;9.980;2023-03-21T09:12:56;10.10;99.90
5429;DHT22;2737;52.386;9.980;2023-03-21T09:15:24;10.10;99.90
5429;DHT22;2737;52.386;9.980;2023-03-21T09:17:53;10.20;99.90
5429;DHT22;2737;52.386;9.980;2023-03-21T09:20:24;10.20;99.90
5429;DHT22;2737;52.386;9.980;2023-03-21T09:22:56;10.30;99.90
5429;DHT22;2737;52.386;9.980;2023-03-21T09:25:24;10.30;99.90
5429;DHT22;2737;52.386;9.980;2023-03-21T09:27:56;10.40;99.90
5429;DHT22;2737;52.386;9.980;2023-03-21T09:30:23;10.50;99.90
5429;DHT22;2737;52.386;9.980;2023-03-21T09:32:50;10.50;99.90
5429;DHT22;2737;52.386;9.980;2023-03-21T09:35:19;10.50;99.90
5429;DHT22;2737;52.386;9.980;2023-03-21T09:37:47;10.40;99.90
5429;DHT22;2737;52.386;9.980;2023-03-21T09:40:19;10.50;99.90
5429;DHT22;2737;52.386;9.980;2023-03-21T09:42:56;10.50;99.90
5429;DHT22;2737;52.386;9.980;2023-03-21T09:45:31;10.60;99.90
5429;DHT22;2737;52.386;9.980;2023-03-21T09:48:00;10.80;99.90
5429;DHT22;2737;52.386;9.980;2023-03-21T09:50:30;10.90;99.90
5429;DHT22;2737;52.386;9.980;2023-03-21T09:53:00;10.90;99.90
5429;DHT22;2737;52.386;9.980;2023-03-21T09:55:33;10.90;99.90
5429;DHT22;2737;52.386;9.980;2023-03-21T09:58:05;11.00;99.90
5429;DHT22;2737;52.386;9.980;2023-03-21T10:00:36;11.10;99.90
5429;DHT22;2737;52.386;9.980;2023-03-21T10:03:10;11.20;99.90
5429;DHT22;2737;52.386;9.980;2023-03-21T10:05:43;11.40;99.90
5429;DHT22;2737;52.386;9.980;2023-03-21T10:08:15;11.40;99.90
5429;DHT22;2737;52.386;9.980;2023-03-21T10:10:48;11.60;99.90
5429;DHT22;2737;52.386;9.980;2023-03-21T10:13:18;11.50;99.90
5429;DHT22;2737;52.386;9.980;2023-03-21T10:15:46;11.60;99.90
5429;DHT22;2737;52.386;9.980;2023-03-21T10:18:19;11.60;99.90
5429;DHT22;2737;52.386;9.980;2023-03-21T10:20:48;11.60;99.90
5429;DHT22;2737;52.386;9.980;2023-03-21T10:23:18;11.70;99.90
5429;DHT22;2737;52.386;9.980;2023-03-21T10:25:49;11.70;99.90
5429;DHT22;2737;52.386;9.980;2023-03-21T10:28:20;11.70;99.90
5429;DHT22;2737;52.386;9.980;2023-03-21T10:30:50;11.70;99.90
5429;DHT22;2737;52.386;9.980;2023-03-21T10:33:21;11.70;99.90
5429;DHT22;2737;52.386;9.980;2023-03-21T10:35:51;11.70;99.90
5429;DHT22;2737;52.386;9.980;2023-03-21T10:38:21;11.60;99.90
5429;DHT22;2737;52.386;9.980;2023-03-21T10:40:50;11.60;99.90
5429;DHT22;2737;52.386;9.980;2023-03-21T10:43:29;11.50;99.90
5429;DHT22;2737;52.386;9.980;2023-03-21T10:45:59;11.50;99.90
5429;DHT22;2737;52.386;9.980;2023-03-21T10:48:34;11.40;99.90
5429;DHT22;2737;52.386;9.980;2023-03-21T10:51:05;11.40;99.90
5429;DHT22;2737;52.386;9.980;2023-03-21T10:53:36;11.30;99.90
5429;DHT22;2737;52.386;9.980;2023-03-21T10:56:08;11.30;99.90
5429;DHT22;2737;52.386;9.980;2023-03-21T10:58:40;11.30;99.90
5429;DHT22;2737;52.386;9.980;2023-03-21T11:01:10;11.30;99.90
5429;DHT22;2737;52.386;9.980;2023-03-21T11:03:42;11.30;99.90
5429;DHT22;2737;52.386;9.980;2023-03-21T11:06:14;11.20;99.90
5429;DHT22;2737;52.386;9.980;2023-03-21T11:08:46;11.20;99.90
5429;DHT22;2737;52.386;9.980;2023-03-21T11:11:23;11.20;99.90
5429;DHT22;2737;52.386;9.980;2023-03-21T11:13:56;11.30;99.90
5429;DHT22;2737;52.386;9.980;2023-03-21T11:16:29;11.50;99.90
5429;DHT22;2737;52.386;9.980;2023-03-21T11:19:00;11.50;99.90
5429;DHT22;2737;52.386;9.980;2023-03-21T11:21:34;11.60;99.90
5429;DHT22;2737;52.386;9.980;2023-03-21T11:24:02;11.60;99.90
5429;DHT22;2737;52.386;9.980;2023-03-21T11:26:34;11.70;99.90
5429;DHT22;2737;52.386;9.980;2023-03-21T11:29:15;11.60;99.90
5429;DHT22;2737;52.386;9.980;2023-03-21T11:31:43;11.50;99.90
5429;DHT22;2737;52.386;9.980;2023-03-21T11:34:24;11.50;99.90
5429;DHT22;2737;52.386;9.980;2023-03-21T11:36:52;11.50;99.90
5429;DHT22;2737;52.386;9.980;2023-03-21T11:39:31;11.50;99.90
5429;DHT22;2737;52.386;9.980;2023-03-21T11:42:00;11.40;99.90
5429;DHT22;2737;52.386;9.980;2023-03-21T11:44:30;11.40;99.90
5429;DHT22;2737;52.386;9.980;2023-03-21T11:46:58;11.40;99.90
5429;DHT22;2737;52.386;9.980;2023-03-21T11:49:26;11.50;99.90
5429;DHT22;2737;52.386;9.980;2023-03-21T11:52:02;11.50;99.90
5429;DHT22;2737;52.386;9.980;2023-03-21T11:54:37;11.40;99.90
5429;DHT22;2737;52.386;9.980;2023-03-21T11:57:16;11.30;99.90
5429;DHT22;2737;52.386;9.980;2023-03-21T11:59:49;11.30;99.90
5429;DHT22;2737;52.386;9.980;2023-03-21T12:02:28;11.30;99.90
5429;DHT22;2737;52.386;9.980;2023-03-21T12:05:02;11.30;99.90
5429;DHT22;2737;52.386;9.980;2023-03-21T12:07:40;11.30;99.90
5429;DHT22;2737;52.386;9.980;2023-03-21T12:10:39;11.10;99.90
5429;DHT22;2737;52.386;9.980;2023-03-21T12:13:30;11.00;99.90
5429;DHT22;2737;52.386;9.980;2023-03-21T12:16:06;11.00;99.90
5429;DHT22;2737;52.386;9.980;2023-03-21T12:18:49;11.00;99.90
5429;DHT22;2737;52.386;9.980;2023-03-21T12:21:28;11.00;99.90
5429;DHT22;2737;52.386;9.980;2023-03-21T12:24:03;11.00;99.90
5429;DHT22;2737;52.386;9.980;2023-03-21T12:26:33;11.00;99.90
5429;DHT22;2737;52.386;9.980;2023-03-21T12:29:14;11.00;99.90
5429;DHT22;2737;52.386;9.980;2023-03-21T12:31:52;10.90;99.90
5429;DHT22;2737;52.386;9.980;2023-03-21T12:34:33;10.90;99.90
5429;DHT22;2737;52.386;9.980;2023-03-21T12:37:09;10.90;99.90
5429;DHT22;2737;52.386;9.980;2023-03-21T12:39:41;10.90;99.90
5429;DHT22;2737;52.386;9.980;2023-03-21T12:42:52;10.90;99.90
5429;DHT22;2737;52.386;9.980;2023-03-21T12:45:25;11.00;99.90
5429;DHT22;2737;52.386;9.980;2023-03-21T12:48:00;11.00;99.90
5429;DHT22;2737;52.386;9.980;2023-03-21T12:50:31;11.00;99.90
5429;DHT22;2737;52.386;9.980;2023-03-21T12:53:07;11.00;99.90
5429;DHT22;2737;52.386;9.980;2023-03-21T12:55:38;11.00;99.90
5429;DHT22;2737;52.386;9.980;2023-03-21T12:58:10;10.90;99.90
5429;DHT22;2737;52.386;9.980;2023-03-21T13:00:46;11.00;99.90
5429;DHT22;2737;52.386;9.980;2023-03-21T13:03:18;11.10;99.90
5429;DHT22;2737;52.386;9.980;2023-03-21T13:05:49;11.10;99.90
5429;DHT22;2737;52.386;9.980;2023-03-21T13:08:23;11.10;99.90
5429;DHT22;2737;52.386;9.980;2023-03-21T13:10:51;11.10;99.90
5429;DHT22;2737;52.386;9.980;2023-03-21T13:13:24;11.00;99.90
5429;DHT22;2737;52.386;9.980;2023-03-21T13:16:01;11.00;99.90
5429;DHT22;2737;52.386;9.980;2023-03-21T13:18:37;11.00;99.90
5429;DHT22;2737;52.386;9.980;2023-03-21T13:21:12;11.00;99.90
5429;DHT22;2737;52.386;9.980;2023-03-21T13:23:54;11.00;99.90
5429;DHT22;2737;52.386;9.980;2023-03-21T13:26:31;10.90;99.90
5429;DHT22;2737;52.386;9.980;2023-03-21T13:28:59;11.00;99.90
5429;DHT22;2737;52.386;9.980;2023-03-21T13:31:27;11.10;99.90
5429;DHT22;2737;52.386;9.980;2023-03-21T13:33:58;11.20;99.90
5429;DHT22;2737;52.386;9.980;2023-03-21T13:36:28;11.20;99.90
5429;DHT22;2737;52.386;9.980;2023-03-21T13:38:59;11.10;99.90
5429;DHT22;2737;52.386;9.980;2023-03-21T13:41:30;11.10;99.90
5429;DHT22;2737;52.386;9.980;2023-03-21T13:44:07;11.10;99.90
5429;DHT22;2737;52.386;9.980;2023-03-21T13:46:42;11.10;99.90
5429;DHT22;2737;52.386;9.980;2023-03-21T13:49:24;11.10;99.90
5429;DHT22;2737;52.386;9.980;2023-03-21T13:51:53;11.00;99.90
5429;DHT22;2737;52.386;9.980;2023-03-21T13:54:23;10.90;99.90
5429;DHT22;2737;52.386;9.980;2023-03-21T13:56:56;11.00;99.90
5429;DHT22;2737;52.386;9.980;2023-03-21T13:59:41;11.00;99.90
5429;DHT22;2737;52.386;9.980;2023-03-21T14:02:28;11.00;99.90
5429;DHT22;2737;52.386;9.980;2023-03-21T14:04:58;11.00;99.90
5429;DHT22;2737;52.386;9.980;2023-03-21T14:07:27;11.00;99.90
5429;DHT22;2737;52.386;9.980;2023-03-21T14:09:59;10.90;99.90
5429;DHT22;2737;52.386;9.980;2023-03-21T14:12:29;10.90;99.90
5429;DHT22;2737;52.386;9.980;2023-03-21T14:15:02;10.80;99.90
5429;DHT22;2737;52.386;9.980;2023-03-21T14:17:32;10.90;99.90
5429;DHT22;2737;52.386;9.980;2023-03-21T14:20:02;10.90;99.90
5429;DHT22;2737;52.386;9.980;2023-03-21T14:22:36;10.80;99.90
5429;DHT22;2737;52.386;9.980;2023-03-21T14:25:09;10.80;99.90
5429;DHT22;2737;52.386;9.980;2023-03-21T14:27:36;10.70;99.90
5429;DHT22;2737;52.386;9.980;2023-03-21T14:30:05;10.70;99.90
5429;DHT22;2737;52.386;9.980;2023-03-21T14:32:34;10.80;99.90
5429;DHT22;2737;52.386;9.980;2023-03-21T14:35:02;10.80;99.90
5429;DHT22;2737;52.386;9.980;2023-03-21T14:37:31;10.80;99.90
5429;DHT22;2737;52.386;9.980;2023-03-21T14:40:00;10.80;99.90
5429;DHT22;2737;52.386;9.980;2023-03-21T14:42:33;10.80;99.90
5429;DHT22;2737;52.386;9.980;2023-03-21T14:45:05;10.70;99.90
5429;DHT22;2737;52.386;9.980;2023-03-21T14:47:38;10.70;99.90
5429;DHT22;2737;52.386;9.980;2023-03-21T14:50:08;10.70;99.90
5429;DHT22;2737;52.386;9.980;2023-03-21T14:52:36;10.70;99.90
5429;DHT22;2737;52.386;9.980;2023-03-21T14:55:14;10.70;99.90
5429;DHT22;2737;52.386;9.980;2023-03-21T14:57:42;10.80;99.90
5429;DHT22;2737;52.386;9.980;2023-03-21T15:00:16;10.80;99.90
5429;DHT22;2737;52.386;9.980;2023-03-21T15:02:47;10.80;99.90
5429;DHT22;2737;52.386;9.980;2023-03-21T15:05:19;10.90;99.90
5429;DHT22;2737;52.386;9.980;2023-03-21T15:07:52;10.90;99.90
5429;DHT22;2737;52.386;9.980;2023-03-21T15:10:21;10.80;99.90
5429;DHT22;2737;52.386;9.980;2023-03-21T15:12:50;10.90;99.90
5429;DHT22;2737;52.386;9.980;2023-03-21T15:15:17;10.90;99.90
5429;DHT22;2737;52.386;9.980;2023-03-21T15:17:47;10.80;99.90
5429;DHT22;2737;52.386;9.980;2023-03-21T15:20:14;10.90;99.90
5429;DHT22;2737;52.386;9.980;2023-03-21T15:22:44;10.80;99.90
5429;DHT22;2737;52.386;9.980;2023-03-21T15:25:15;10.90;99.90
5429;DHT22;2737;52.386;9.980;2023-03-21T15:27:44;10.90;99.90
5429;DHT22;2737;52.386;9.980;2023-03-21T15:30:22;10.90;99.90
5429;DHT22;2737;52.386;9.980;2023-03-21T15:32:51;10.90;99.90
5429;DHT22;2737;52.386;9.980;2023-03-21T15:35:21;11.00;99.90
5429;DHT22;2737;52.386;9.980;2023-03-21T15:37:53;10.90;99.90
5429;DHT22;2737;52.386;9.980;2023-03-21T15:40:22;10.80;99.90
5429;DHT22;2737;52.386;9.980;2023-03-21T15:42:50;10.80;99.90
5429;DHT22;2737;52.386;9.980;2023-03-21T15:45:20;10.90;99.90
5429;DHT22;2737;52.386;9.980;2023-03-21T15:47:54;10.80;99.90
5429;DHT22;2737;52.386;9.980;2023-03-21T15:50:28;10.80;99.90
5429;DHT22;2737;52.386;9.980;2023-03-21T15:53:00;10.80;99.90
5429;DHT22;2737;52.386;9.980;2023-03-21T15:55:31;10.70;99.90
5429;DHT22;2737;52.386;9.980;2023-03-21T15:58:03;10.80;99.90
5429;DHT22;2737;52.386;9.980;2023-03-21T16:00:46;10.80;99.90
5429;DHT22;2737;52.386;9.980;2023-03-21T16:03:21;10.90;99.90
5429;DHT22;2737;52.386;9.980;2023-03-21T16:06:06;10.80;99.90
5429;DHT22;2737;52.386;9.980;2023-03-21T16:08:35;10.90;99.90
5429;DHT22;2737;52.386;9.980;2023-03-21T16:11:08;10.90;99.90
5429;DHT22;2737;52.386;9.980;2023-03-21T16:13:35;10.90;99.90
5429;DHT22;2737;52.386;9.980;2023-03-21T16:16:02;10.90;99.90
5429;DHT22;2737;52.386;9.980;2023-03-21T16:18:30;11.00;99.90
5429;DHT22;2737;52.386;9.980;2023-03-21T16:20:57;11.00;99.90
5429;DHT22;2737;52.386;9.980;2023-03-21T16:23:24;11.00;99.90
5429;DHT22;2737;52.386;9.980;2023-03-21T16:25:55;11.00;99.90
5429;DHT22;2737;52.386;9.980;2023-03-21T16:28:23;11.00;99.90
5429;DHT22;2737;52.386;9.980;2023-03-21T16:30:51;11.00;99.90
5429;DHT22;2737;52.386;9.980;2023-03-21T16:33:18;11.00;99.90
5429;DHT22;2737;52.386;9.980;2023-03-21T16:35:46;11.00;99.90
5429;DHT22;2737;52.386;9.980;2023-03-21T16:38:13;11.00;99.90